createdAt,value
2022-08-10T16:02:14.482Z,11.80
2022-08-10T16:03:54.726Z,11.00
2022-08-10T16:06:01.397Z,9.40
2022-08-10T16:07:49.131Z,12.40
2022-08-10T16:10:21.940Z,10.20
2022-08-10T16:11:17.384Z,10.00
2022-08-10T16:13:59.908Z,7.40
2022-08-10T16:15:12.244Z,6.20
2022-08-10T16:16:48.817Z,10.20
2022-08-10T16:18:24.749Z,6.80
2022-08-10T16:19:57.613Z,10.00
2022-08-10T16:21:30.552Z,7.20
2022-08-10T16:23:10.957Z,8.20
2022-08-10T16:24:47.403Z,7.20
2022-08-10T16:26:25.041Z,8.60
2022-08-10T16:28:04.547Z,7.60
2022-08-10T16:29:55.682Z,6.20
2022-08-10T16:31:31.329Z,6.80
2022-08-10T16:33:03.160Z,7.00
2022-08-10T16:34:37.961Z,6.60
2022-08-10T16:36:09.767Z,5.40
2022-08-10T16:37:58.765Z,6.20
2022-08-10T16:40:00.422Z,6.60
2022-08-10T16:42:04.939Z,7.40
2022-08-10T16:43:23.728Z,6.00
2022-08-10T16:45:01.767Z,3.80
2022-08-10T16:46:33.533Z,6.00
2022-08-10T16:48:05.731Z,7.40
2022-08-10T16:49:40.300Z,9.00
2022-08-10T16:51:14.259Z,6.80
2022-08-10T16:52:50.103Z,7.20
2022-08-10T16:54:27.009Z,5.20
2022-08-10T16:56:04.371Z,6.80
2022-08-10T16:57:39.767Z,5.40
2022-08-10T16:59:17.770Z,8.00
2022-08-10T17:00:53.698Z,6.00
2022-08-10T17:02:25.525Z,7.20
2022-08-10T17:04:06.624Z,7.80
2022-08-10T17:06:09.803Z,5.00
2022-08-10T17:07:34.068Z,7.20
2022-08-10T17:09:07.258Z,5.20
2022-08-10T17:10:39.532Z,6.00
2022-08-10T17:12:14.072Z,6.20
2022-08-10T17:13:46.179Z,6.60
2022-08-10T17:15:17.996Z,8.40
2022-08-10T17:16:55.554Z,16.40
2022-08-10T17:18:30.323Z,13.80
2022-08-10T17:20:30.841Z,16.00
2022-08-10T17:21:56.791Z,24.00
2022-08-10T17:23:31.231Z,32.60
2022-08-10T17:25:11.916Z,33.00
2022-08-10T17:26:44.027Z,49.80
2022-08-10T17:28:36.120Z,41.40
2022-08-10T17:30:13.986Z,51.00
2022-08-10T17:31:53.532Z,47.20
2022-08-10T17:33:28.912Z,53.00
2022-08-10T17:35:01.835Z,53.00
2022-08-10T17:36:34.473Z,47.80
2022-08-10T17:38:09.599Z,46.20
2022-08-10T17:39:43.444Z,47.20
2022-08-10T17:41:15.703Z,55.40
2022-08-10T17:42:47.603Z,52.00
2022-08-10T17:44:19.823Z,49.40
2022-08-10T17:45:51.981Z,49.40
2022-08-10T17:47:27.273Z,50.00
2022-08-10T17:48:59.896Z,59.60
2022-08-10T17:50:33.085Z,57.40
2022-08-10T17:52:07.528Z,57.20
2022-08-10T17:53:50.714Z,53.80
2022-08-10T17:55:22.517Z,61.40
2022-08-10T17:56:59.508Z,54.40
2022-08-10T17:58:31.719Z,61.20
2022-08-10T18:00:05.670Z,63.80
2022-08-10T18:02:01.946Z,57.60
2022-08-10T18:03:34.474Z,55.00
2022-08-10T18:05:08.403Z,58.80
2022-08-10T18:06:41.261Z,68.80
2022-08-10T18:08:13.889Z,63.00
2022-08-10T18:09:52.980Z,70.00
2022-08-10T18:11:26.262Z,70.80
2022-08-10T18:12:58.059Z,56.60
2022-08-10T18:14:31.201Z,65.40
2022-08-10T18:16:03.049Z,63.80
2022-08-10T18:17:38.303Z,63.40
2022-08-10T18:19:12.550Z,57.60
2022-08-10T18:20:44.402Z,62.00
2022-08-10T18:22:16.199Z,57.80
2022-08-10T18:23:52.541Z,62.20
2022-08-10T18:25:27.171Z,67.60
2022-08-10T18:27:01.920Z,59.60
2022-08-10T18:28:33.870Z,64.60
2022-08-10T18:30:07.892Z,64.20
2022-08-10T18:31:41.812Z,61.20
2022-08-10T18:33:14.493Z,59.20
2022-08-10T18:34:46.544Z,64.00
2022-08-10T18:36:18.458Z,57.80
2022-08-10T18:37:51.332Z,64.40
2022-08-10T18:39:32.315Z,62.20
2022-08-10T18:41:07.602Z,64.20
2022-08-10T18:42:40.704Z,63.60
2022-08-10T18:44:15.726Z,62.40
2022-08-10T18:45:47.523Z,62.00
2022-08-10T18:47:34.133Z,71.20
2022-08-10T18:49:09.182Z,68.75
2022-08-10T18:50:54.772Z,66.40
2022-08-10T18:52:30.269Z,76.20
2022-08-10T18:54:09.315Z,71.80
2022-08-10T18:56:33.023Z,64.80
2022-08-10T18:58:11.435Z,67.00
2022-08-10T19:00:07.737Z,73.60
2022-08-10T19:02:05.304Z,64.60
2022-08-10T19:04:02.258Z,72.40
2022-08-10T19:06:01.497Z,82.75
2022-08-10T19:07:55.000Z,78.00
2022-08-10T19:09:57.146Z,74.50
2022-08-10T19:12:05.690Z,74.75
2022-08-10T19:14:00.367Z,76.75
2022-08-10T19:15:49.136Z,79.50
2022-08-10T19:18:03.444Z,77.25
2022-08-10T19:20:12.290Z,85.50
2022-08-10T19:22:14.675Z,90.75
2022-08-10T19:24:15.225Z,88.00
2022-08-10T19:26:33.008Z,89.25
2022-08-10T19:28:13.489Z,85.75
2022-08-10T19:30:20.808Z,94.00
2022-08-10T19:32:33.792Z,81.50
2022-08-10T19:34:24.505Z,85.75
2022-08-10T19:36:17.726Z,91.25
2022-08-10T19:37:59.915Z,83.50
2022-08-10T19:39:50.867Z,97.00
2022-08-10T19:41:26.484Z,95.00
2022-08-10T19:43:59.171Z,86.50
2022-08-10T19:46:01.275Z,91.25
2022-08-10T19:47:41.286Z,100.25
2022-08-10T19:49:53.122Z,105.25
2022-08-10T19:51:48.551Z,108.25
2022-08-10T19:53:55.633Z,95.75
2022-08-10T19:55:54.306Z,102.00
2022-08-10T19:57:36.682Z,103.25
2022-08-10T20:00:17.226Z,104.00
2022-08-10T20:01:15.978Z,98.25
2022-08-10T20:03:10.595Z,95.25
2022-08-10T20:04:47.188Z,86.75
2022-08-10T20:06:43.508Z,97.25
2022-08-10T20:08:20.205Z,78.75
2022-08-10T20:10:24.646Z,88.50
2022-08-10T20:12:08.485Z,83.50
2022-08-10T20:13:45.277Z,92.00
2022-08-10T20:15:42.550Z,86.00
2022-08-10T20:17:26.118Z,86.00
2022-08-10T20:19:05.983Z,80.25
2022-08-10T20:20:42.540Z,82.75
2022-08-10T20:22:14.589Z,91.75
2022-08-10T20:23:55.461Z,83.00
2022-08-10T20:25:31.548Z,76.50
2022-08-10T20:27:59.169Z,82.00
2022-08-10T20:29:58.242Z,85.75
2022-08-10T20:31:40.368Z,95.75
2022-08-10T20:33:30.500Z,81.00
2022-08-10T20:35:07.852Z,79.00
2022-08-10T20:36:42.644Z,84.00
2022-08-10T20:38:28.839Z,82.75
2022-08-10T20:40:18.432Z,89.50
2022-08-10T20:42:21.996Z,81.00
2022-08-10T20:44:20.016Z,86.25
2022-08-10T20:46:11.410Z,85.75
2022-08-10T20:48:10.329Z,95.50
2022-08-10T20:49:52.245Z,90.75
2022-08-10T20:51:58.361Z,89.75
2022-08-10T20:53:27.713Z,80.25
2022-08-10T20:55:02.276Z,82.75
2022-08-10T20:57:56.511Z,80.25
2022-08-10T20:59:33.392Z,88.00
2022-08-10T21:02:05.928Z,90.75
2022-08-10T21:04:01.212Z,105.75
2022-08-10T21:06:09.940Z,103.75
2022-08-10T21:08:02.399Z,114.50
2022-08-10T21:10:02.835Z,100.50
2022-08-10T21:11:43.188Z,116.20
2022-08-10T21:13:24.780Z,114.00
2022-08-10T21:15:00.512Z,111.75
2022-08-10T21:16:49.507Z,96.50
2022-08-10T21:18:44.022Z,119.40
2022-08-10T21:22:49.516Z,126.00
2022-08-10T21:24:25.734Z,128.00
2022-08-10T21:25:42.032Z,112.00
2022-08-10T21:26:20.341Z,149.25
2022-08-10T21:28:25.201Z,151.75
2022-08-10T21:30:27.289Z,136.75
2022-08-10T21:32:17.764Z,130.50
2022-08-10T21:34:37.131Z,134.75
2022-08-10T21:36:39.711Z,148.75
2022-08-10T21:38:48.144Z,154.75
2022-08-10T21:41:18.543Z,151.50
2022-08-10T21:43:44.168Z,180.50
2022-08-10T21:46:12.807Z,178.00
2022-08-10T21:48:33.798Z,166.00
2022-08-10T21:50:27.604Z,163.25
2022-08-10T21:52:39.147Z,172.50
2022-08-10T21:54:37.528Z,203.25
2022-08-10T21:57:08.338Z,166.75
2022-08-10T21:59:11.900Z,173.75
2022-08-10T22:01:05.870Z,197.25
2022-08-10T22:02:59.710Z,171.25
2022-08-10T22:04:50.198Z,164.25
2022-08-10T22:06:40.640Z,190.50
2022-08-10T22:08:44.929Z,183.25
2022-08-10T22:10:37.022Z,201.75
2022-08-10T22:12:32.104Z,176.50
2022-08-10T22:14:22.863Z,171.75
2022-08-10T22:16:17.351Z,161.75
2022-08-10T22:18:07.661Z,175.00
2022-08-10T22:20:12.305Z,232.33
2022-08-10T22:22:19.653Z,216.67
2022-08-10T22:24:29.279Z,225.00
2022-08-10T22:26:39.901Z,217.00
2022-08-10T22:28:33.510Z,207.00
2022-08-10T22:30:23.934Z,180.50
2022-08-10T22:32:22.426Z,160.50
2022-08-10T22:34:21.309Z,152.00
